Portada
METAR-TAF:

METAR-TAF

Aeropuertos :

Lichinga, Mozambique

latitud: 13-18S, longitud: 035-14E, altitud: 1364 m

Observación

El informe se hizo hace 40 minutos, a las 09:00 UTC
Viento 4 kt del sur-sureste
Temperatura 19°C
Humedad 60%
Presión 1023 hPa
Visibilidad 10 km o más
Escasas nubes a una altura de 1600 ft

METAR: FQLC 080900Z 15004KT 9999 FEW016 19/11 Q1023

Hora: 11:40 (09:40 UTC)

Pronóstico

El informe se hizo hace 5 horas y 40 minutos, a las 04:00 UTC
Pronóstico válido del 08 a las 06 UTC al 09 a las 06 UTC
Viento 5 kt del sureste
Visibilidad 10 km o más
sin nubes por debajo de 1500 m y sin presencia de cumulonimbus.
Evolucionando progresivamente
del 08 a las 12 UTC al 08 a las 14 UTC
Viento 12 kt del sur-suroeste
Evolucionando progresivamente
del 08 a las 18 UTC al 08 a las 20 UTC
Viento 8 kt del este

TAF: FQLC 080400Z 0806/0906 14005KT CAVOK TX24/0812Z TN10/0903Z BECMG 0812/0814 20012KT BECMG 0818/0820 10008KT

Observaciones y pronósticos meteorológicos de más de 4000 aeropuertos (mensajes METAR y TAF).

Los puntos amarillos y rojos representan las estaciones disponibles.

Ponga el ratón en el punto deseado para ver el nombre de la estación.

Haga clic para ver las observaciones y los pronósticos meteorológicos.

Para cambiar el mapa : haga clic en los botones verdes con una cruz de color negro para hacer un zoom, en el botón verde con un guión para alejar o en las flechas verdes para mapas adyacentes.


METAR-TAF: